createdAt,value
2023-05-25T00:01:05.549Z,97868.81
2023-05-25T00:03:39.577Z,97867.97
2023-05-25T00:06:12.865Z,97857.69
2023-05-25T00:08:46.101Z,97857.69
2023-05-25T00:11:22.649Z,97859.44
2023-05-25T00:13:57.455Z,97862.50
2023-05-25T00:16:30.730Z,97860.00
2023-05-25T00:19:08.735Z,97866.69
2023-05-25T00:21:41.866Z,97875.53
2023-05-25T00:24:15.853Z,97873.63
2023-05-25T00:26:49.232Z,97877.19
2023-05-25T00:29:22.563Z,97880.97
2023-05-25T00:31:55.657Z,97882.06
2023-05-25T00:34:29.771Z,97873.84
2023-05-25T00:37:03.120Z,97875.72
2023-05-25T00:39:36.428Z,97880.56
2023-05-25T00:42:11.853Z,97887.28
2023-05-25T00:44:46.213Z,97893.88
2023-05-25T00:47:19.241Z,97892.69
2023-05-25T00:49:53.324Z,97894.38
2023-05-25T00:52:27.010Z,97902.09
2023-05-25T00:55:03.564Z,97899.25
2023-05-25T00:57:40.910Z,97894.69
2023-05-25T01:00:17.315Z,97897.72
2023-05-25T01:02:50.873Z,97893.94
2023-05-25T01:05:31.824Z,97895.41
2023-05-25T01:08:06.903Z,97905.31
2023-05-25T01:10:41.194Z,97902.16
2023-05-25T01:13:16.596Z,97907.72
2023-05-25T01:15:50.859Z,97919.56
2023-05-25T01:18:25.698Z,97932.16
2023-05-25T01:21:40.086Z,97924.97
2023-05-25T01:24:19.984Z,97936.59
2023-05-25T01:27:30.176Z,97934.22
2023-05-25T01:30:06.420Z,97937.34
2023-05-25T01:32:40.811Z,97939.47
2023-05-25T01:35:14.902Z,97948.84
2023-05-25T01:37:51.403Z,97946.72
2023-05-25T01:40:24.684Z,97952.47
2023-05-25T01:42:57.905Z,97945.34
2023-05-25T01:45:31.216Z,97951.84
2023-05-25T01:48:22.057Z,97952.81
2023-05-25T01:51:14.211Z,97965.00
2023-05-25T01:53:58.285Z,97959.19
2023-05-25T01:56:32.558Z,97967.38
2023-05-25T01:59:07.347Z,97978.81
2023-05-25T02:01:41.101Z,97982.72
2023-05-25T02:04:16.635Z,97979.16
2023-05-25T02:06:52.865Z,97989.41
2023-05-25T02:09:29.040Z,97995.50
2023-05-25T02:12:01.942Z,97995.72
2023-05-25T02:14:34.800Z,97989.13
2023-05-25T02:17:08.741Z,97996.53
2023-05-25T02:19:41.702Z,98008.06
2023-05-25T02:22:15.540Z,98004.91
2023-05-25T02:24:49.443Z,98007.81
2023-05-25T02:27:23.348Z,98006.75
2023-05-25T02:29:56.067Z,98015.41
2023-05-25T02:32:34.515Z,98022.72
2023-05-25T02:35:08.043Z,98020.53
2023-05-25T02:37:40.048Z,98020.69
2023-05-25T02:40:15.180Z,98021.59
2023-05-25T02:42:49.213Z,98015.16
2023-05-25T02:45:22.341Z,98013.88
2023-05-25T02:47:56.414Z,98015.38
2023-05-25T02:50:30.449Z,98009.22
2023-05-25T02:53:07.875Z,98009.75
2023-05-25T02:55:43.158Z,98008.75
2023-05-25T02:58:22.684Z,97996.84
2023-05-25T03:01:06.488Z,97994.75
2023-05-25T03:03:39.657Z,97993.06
2023-05-25T03:06:09.453Z,97994.50
2023-05-25T03:08:38.470Z,97996.53
2023-05-25T03:11:07.618Z,97991.03
2023-05-25T03:13:37.712Z,97998.09
2023-05-25T03:16:07.286Z,97996.78
2023-05-25T03:18:36.461Z,97991.13
2023-05-25T03:21:06.351Z,97991.16
2023-05-25T03:23:35.114Z,97984.66
2023-05-25T03:26:08.040Z,97985.38
2023-05-25T03:28:36.994Z,97987.72
2023-05-25T03:31:07.398Z,97985.75
2023-05-25T03:33:36.678Z,97989.28
2023-05-25T03:36:11.926Z,97988.78
2023-05-25T03:38:41.515Z,97987.19
2023-05-25T03:41:10.646Z,97993.78
2023-05-25T03:43:41.931Z,97995.94
2023-05-25T03:46:14.711Z,98006.47
2023-05-25T03:48:45.310Z,98012.44
2023-05-25T03:51:14.378Z,98009.97
2023-05-25T03:53:43.350Z,98005.41
2023-05-25T03:56:13.018Z,98010.69
2023-05-25T03:58:42.165Z,98018.94
2023-05-25T04:01:12.252Z,98014.00
2023-05-25T04:03:41.820Z,98021.19
2023-05-25T04:06:10.792Z,98028.72
2023-05-25T04:08:42.530Z,98025.69
2023-05-25T04:11:11.548Z,98014.13
2023-05-25T04:13:41.206Z,98008.13
2023-05-25T04:16:13.414Z,98009.84
2023-05-25T04:18:43.326Z,98012.66
2023-05-25T04:21:12.833Z,98011.44
2023-05-25T04:23:44.116Z,98009.63
2023-05-25T04:26:14.608Z,98015.16
2023-05-25T04:28:49.111Z,98011.25
2023-05-25T04:31:30.264Z,98016.25
2023-05-25T04:34:18.221Z,98025.91
2023-05-25T04:36:56.277Z,98027.16
2023-05-25T04:39:26.204Z,98031.19
2023-05-25T04:41:59.725Z,98027.47
2023-05-25T04:44:30.861Z,98033.59
2023-05-25T04:47:02.415Z,98036.34
2023-05-25T04:49:35.069Z,98035.13
2023-05-25T04:52:04.687Z,98042.75
2023-05-25T04:54:36.177Z,98043.22
2023-05-25T04:57:07.340Z,98047.53
2023-05-25T04:59:36.392Z,98046.41
2023-05-25T05:02:06.769Z,98050.03
2023-05-25T05:04:38.116Z,98058.00
2023-05-25T05:07:11.061Z,98067.41
2023-05-25T05:09:40.659Z,98092.03
2023-05-25T05:12:12.071Z,98110.38
2023-05-25T05:14:47.925Z,98131.75
2023-05-25T05:17:18.532Z,98162.66
2023-05-25T05:19:48.215Z,98191.81
2023-05-25T05:22:17.333Z,98227.34
2023-05-25T05:24:47.642Z,98227.50
2023-05-25T05:27:23.536Z,98228.03
2023-05-25T05:29:58.411Z,98228.97
2023-05-25T05:32:28.236Z,98247.94
2023-05-25T05:35:07.581Z,98249.06
2023-05-25T05:37:45.073Z,98241.81
2023-05-25T05:40:14.618Z,98241.66
2023-05-25T05:42:44.542Z,98225.00
2023-05-25T05:45:14.182Z,98243.16
2023-05-25T05:47:43.426Z,98227.75
2023-05-25T05:50:14.107Z,98201.97
2023-05-25T05:52:43.773Z,98193.09
2023-05-25T05:55:13.797Z,98186.25
2023-05-25T05:57:43.936Z,98178.13
2023-05-25T06:00:14.501Z,98160.13
2023-05-25T06:02:44.888Z,98170.91
2023-05-25T06:05:22.003Z,98188.91
2023-05-25T06:07:53.512Z,98202.22
2023-05-25T06:10:24.530Z,98196.31
2023-05-25T06:12:54.156Z,98183.78
2023-05-25T06:15:24.499Z,98184.44
2023-05-25T06:17:56.744Z,98160.53
2023-05-25T06:20:27.094Z,98137.53
2023-05-25T06:22:56.612Z,98135.47
2023-05-25T06:25:25.798Z,98143.91
2023-05-25T06:27:56.940Z,98150.97
2023-05-25T06:30:26.429Z,98137.09
2023-05-25T06:32:55.346Z,98116.31
2023-05-25T06:35:24.663Z,98101.53
2023-05-25T06:37:54.836Z,98104.66
2023-05-25T06:40:24.220Z,98105.16
2023-05-25T06:42:53.537Z,98109.50
2023-05-25T06:45:40.339Z,98091.09
2023-05-25T06:48:11.269Z,98086.09
2023-05-25T06:50:41.096Z,98101.88
2023-05-25T06:53:12.118Z,98110.38
2023-05-25T06:58:54.787Z,98101.69
2023-05-25T07:01:34.001Z,98075.50
2023-05-25T07:04:15.932Z,98058.06
2023-05-25T07:06:49.764Z,98031.91
2023-05-25T07:09:20.210Z,98018.34
2023-05-25T07:11:51.211Z,98000.53
2023-05-25T07:14:28.422Z,98004.16
2023-05-25T07:17:18.924Z,98007.44
2023-05-25T07:20:34.757Z,98001.34
2023-05-25T07:23:24.067Z,98012.81
2023-05-25T07:26:10.974Z,98020.50
2023-05-25T07:28:42.209Z,98039.22
2023-05-25T07:31:14.217Z,98043.66
2023-05-25T07:33:57.490Z,98047.94
2023-05-25T07:36:44.213Z,98041.53
2023-05-25T07:39:16.332Z,98043.56
2023-05-25T07:41:45.809Z,98035.94
2023-05-25T07:44:15.754Z,98008.75
2023-05-25T07:46:46.300Z,98004.25
2023-05-25T07:49:27.595Z,98004.63
2023-05-25T07:52:00.328Z,97996.22
2023-05-25T07:54:33.652Z,97991.22
2023-05-25T07:57:11.549Z,97992.34
2023-05-25T07:59:41.621Z,97989.56
2023-05-25T08:02:16.717Z,97975.72
2023-05-25T08:04:50.085Z,97975.16
2023-05-25T08:07:27.301Z,97964.41
2023-05-25T08:10:12.475Z,97969.16
2023-05-25T08:12:49.705Z,97958.56
2023-05-25T08:15:22.695Z,97950.81
2023-05-25T08:17:53.257Z,97944.91
2023-05-25T08:20:28.673Z,97942.66
2023-05-25T08:23:03.942Z,97947.16
2023-05-25T08:25:47.113Z,97941.25
2023-05-25T08:28:17.892Z,97936.06
2023-05-25T08:30:48.903Z,97931.19
2023-05-25T08:33:18.332Z,97924.47
2023-05-25T08:35:49.445Z,97911.53
2023-05-25T08:38:19.237Z,97904.88
2023-05-25T08:41:04.014Z,97910.47
2023-05-25T08:43:35.181Z,97914.56
2023-05-25T08:46:09.507Z,97913.16
2023-05-25T08:48:42.183Z,97896.50
2023-05-25T08:51:18.934Z,97899.63
2023-05-25T08:53:49.065Z,97890.59
2023-05-25T08:56:24.370Z,97885.75
2023-05-25T08:59:07.790Z,97887.84
2023-05-25T09:01:45.024Z,97875.31
2023-05-25T09:04:18.517Z,97867.56
2023-05-25T09:07:10.917Z,97854.31
2023-05-25T09:09:51.823Z,97855.53
2023-05-25T09:12:34.831Z,97849.63
2023-05-25T09:15:08.078Z,97850.38
2023-05-25T09:17:45.374Z,97849.81
2023-05-25T09:20:18.312Z,97860.22
2023-05-25T09:22:49.373Z,97851.72
2023-05-25T09:25:47.447Z,97848.19
2023-05-25T09:28:30.827Z,97851.44
2023-05-25T09:31:03.055Z,97834.47
2023-05-25T09:33:33.588Z,97844.31
2023-05-25T09:36:05.640Z,97851.94
2023-05-25T09:38:45.680Z,97842.06
2023-05-25T09:41:19.908Z,97843.09
2023-05-25T09:44:02.208Z,97847.44
2023-05-25T09:47:14.198Z,97843.41
2023-05-25T09:50:10.460Z,97843.03
2023-05-25T09:52:46.259Z,97832.34
2023-05-25T09:55:51.570Z,97842.28
2023-05-25T09:58:50.011Z,97826.41
2023-05-25T10:01:29.762Z,97821.72
2023-05-25T10:04:04.791Z,97825.69
2023-05-25T10:06:37.959Z,97810.28
2023-05-25T10:09:15.815Z,97797.63
2023-05-25T10:11:54.161Z,97798.31
2023-05-25T10:14:30.369Z,97793.16
2023-05-25T10:17:03.932Z,97786.31
2023-05-25T10:19:37.022Z,97788.88
2023-05-25T10:22:18.128Z,97780.47
2023-05-25T10:25:11.734Z,97794.13
2023-05-25T10:28:06.743Z,97788.25
2023-05-25T10:30:40.355Z,97785.59
2023-05-25T10:33:12.079Z,97792.97
2023-05-25T10:35:56.701Z,97788.16
2023-05-25T10:38:34.589Z,97784.69
2023-05-25T10:41:07.696Z,97791.44
2023-05-25T10:43:42.727Z,97792.19
2023-05-25T10:46:23.545Z,97812.56
2023-05-25T10:48:54.733Z,97814.00
2023-05-25T10:51:43.184Z,97812.81
2023-05-25T10:54:34.464Z,97807.44
2023-05-25T10:57:17.948Z,97815.72
2023-05-25T11:00:18.483Z,97823.88
2023-05-25T11:02:57.799Z,97834.78
2023-05-25T11:05:39.740Z,97841.69
2023-05-25T11:08:16.840Z,97837.78
2023-05-25T11:10:50.466Z,97825.13
2023-05-25T11:13:24.905Z,97812.38
2023-05-25T11:16:35.657Z,97807.88
2023-05-25T11:19:05.014Z,97808.81
2023-05-25T11:21:45.695Z,97807.09
2023-05-25T11:24:17.911Z,97804.91
2023-05-25T11:27:02.640Z,97799.31
2023-05-25T11:29:33.576Z,97801.66
2023-05-25T11:32:04.005Z,97800.81
2023-05-25T11:34:34.140Z,97811.78
2023-05-25T11:37:03.850Z,97818.91
2023-05-25T11:39:33.654Z,97822.47
2023-05-25T11:42:12.101Z,97813.16
2023-05-25T11:44:42.653Z,97802.50
2023-05-25T11:47:15.559Z,97793.31
2023-05-25T11:49:48.258Z,97793.81
2023-05-25T11:52:23.150Z,97789.78
2023-05-25T11:54:54.271Z,97789.34
2023-05-25T11:57:25.927Z,97793.00
2023-05-25T11:59:58.477Z,97795.53
2023-05-25T12:02:40.559Z,97800.44
2023-05-25T12:05:11.345Z,97791.66
2023-05-25T12:07:47.734Z,97793.91
2023-05-25T12:10:20.398Z,97795.16
2023-05-25T12:12:50.996Z,97791.38
2023-05-25T12:15:26.186Z,97790.84
2023-05-25T12:17:58.018Z,97792.78
2023-05-25T12:20:28.360Z,97795.03
2023-05-25T12:22:59.450Z,97788.06
2023-05-25T12:25:42.385Z,97778.31
2023-05-25T12:28:19.324Z,97771.59
2023-05-25T12:30:48.449Z,97775.94
2023-05-25T12:33:17.731Z,97766.31
2023-05-25T12:35:51.584Z,97768.41
2023-05-25T12:38:22.948Z,97769.38
2023-05-25T12:41:12.027Z,97770.06
2023-05-25T12:43:44.329Z,97760.72
2023-05-25T12:46:25.902Z,97767.72
2023-05-25T12:48:55.282Z,97770.34
2023-05-25T12:51:24.450Z,97770.22
2023-05-25T12:53:55.875Z,97761.16
2023-05-25T12:56:25.057Z,97763.50
2023-05-25T12:58:53.995Z,97755.28
2023-05-25T13:01:23.304Z,97753.75
2023-05-25T13:03:52.529Z,97753.78
2023-05-25T13:06:21.630Z,97753.22
2023-05-25T13:08:50.745Z,97729.03
2023-05-25T13:11:20.440Z,97723.19
2023-05-25T13:13:49.438Z,97713.84
2023-05-25T13:16:18.484Z,97712.16
2023-05-25T13:18:47.255Z,97727.31
2023-05-25T13:21:16.333Z,97719.13
2023-05-25T13:23:45.668Z,97716.88
2023-05-25T13:26:26.687Z,97724.38
2023-05-25T13:29:00.402Z,97726.75
2023-05-25T13:31:29.499Z,97728.25
2023-05-25T13:34:01.499Z,97722.25
2023-05-25T13:36:30.805Z,97725.56
2023-05-25T13:39:00.953Z,97727.72
2023-05-25T13:41:30.062Z,97730.34
2023-05-25T13:43:59.191Z,97733.22
2023-05-25T13:46:35.034Z,97732.34
2023-05-25T13:49:20.091Z,97743.31
2023-05-25T13:52:00.521Z,97765.81
2023-05-25T13:54:31.133Z,97773.06
2023-05-25T13:56:59.981Z,97784.22
2023-05-25T13:59:29.276Z,97769.56
2023-05-25T14:01:58.678Z,97753.94
2023-05-25T14:04:28.170Z,97742.72
2023-05-25T14:06:58.021Z,97745.75
2023-05-25T14:09:27.113Z,97730.16
2023-05-25T14:11:57.034Z,97731.22
2023-05-25T14:14:31.994Z,97733.38
2023-05-25T14:17:02.245Z,97733.66
2023-05-25T14:19:31.351Z,97725.53
2023-05-25T14:22:12.372Z,97724.72
2023-05-25T14:24:43.317Z,97730.84
2023-05-25T14:27:12.358Z,97736.81
2023-05-25T14:29:41.281Z,97734.19
2023-05-25T14:32:10.416Z,97725.44
2023-05-25T14:34:39.586Z,97734.69
2023-05-25T14:37:08.995Z,97745.63
2023-05-25T14:39:38.432Z,97751.53
2023-05-25T14:42:07.747Z,97733.53
2023-05-25T14:44:36.928Z,97734.81
2023-05-25T14:47:06.097Z,97739.13
2023-05-25T14:49:35.042Z,97736.00
2023-05-25T14:52:04.098Z,97737.34
2023-05-25T14:54:33.739Z,97743.72
2023-05-25T14:57:02.828Z,97731.94
2023-05-25T14:59:31.994Z,97726.44
2023-05-25T15:02:00.865Z,97730.53
2023-05-25T15:04:31.719Z,97725.63
2023-05-25T15:07:01.040Z,97736.81
2023-05-25T15:09:29.796Z,97727.22
2023-05-25T15:11:59.452Z,97714.75
2023-05-25T15:14:28.477Z,97708.53
2023-05-25T15:16:58.069Z,97702.41
2023-05-25T15:19:27.035Z,97699.59
2023-05-25T15:21:58.718Z,97701.13
2023-05-25T15:24:27.924Z,97695.16
2023-05-25T15:26:57.042Z,97713.81
2023-05-25T15:29:25.974Z,97719.47
2023-05-25T15:31:55.730Z,97727.22
2023-05-25T15:34:24.615Z,97735.75
2023-05-25T15:36:53.614Z,97722.47
2023-05-25T15:39:22.804Z,97719.69
2023-05-25T15:41:52.130Z,97721.16
2023-05-25T15:44:22.216Z,97737.91
2023-05-25T15:46:51.627Z,97730.84
2023-05-25T15:49:21.206Z,97714.34
2023-05-25T15:51:50.378Z,97705.13
2023-05-25T15:54:19.273Z,97711.97
2023-05-25T15:56:48.569Z,97704.63
2023-05-25T15:59:17.523Z,97691.00
2023-05-25T16:01:46.773Z,97684.47
2023-05-25T16:04:16.255Z,97693.88
2023-05-25T16:06:45.354Z,97704.28
2023-05-25T16:09:14.196Z,97712.53
2023-05-25T16:11:43.693Z,97709.53
2023-05-25T16:14:12.586Z,97720.31
2023-05-25T16:16:41.767Z,97719.38
2023-05-25T16:19:13.861Z,97731.34
2023-05-25T16:21:43.575Z,97720.31
2023-05-25T16:24:12.675Z,97712.31
2023-05-25T16:26:42.848Z,97698.53
2023-05-25T16:29:11.740Z,97702.03
2023-05-25T16:31:41.042Z,97702.63
2023-05-25T16:34:10.195Z,97708.59
2023-05-25T16:36:39.022Z,97696.19
2023-05-25T16:39:09.299Z,97693.78
2023-05-25T16:41:38.567Z,97686.59
2023-05-25T16:44:07.694Z,97687.81
2023-05-25T16:46:36.930Z,97677.13
2023-05-25T16:49:06.392Z,97676.09
2023-05-25T16:51:35.367Z,97666.50
2023-05-25T16:54:04.757Z,97653.00
2023-05-25T16:56:33.572Z,97637.47
2023-05-25T16:59:02.773Z,97650.28
2023-05-25T17:01:31.873Z,97652.66
2023-05-25T17:04:01.182Z,97659.56
2023-05-25T17:06:30.515Z,97666.25
2023-05-25T17:09:00.430Z,97662.91
2023-05-25T17:11:29.565Z,97659.22
2023-05-25T17:13:59.414Z,97655.75
2023-05-25T17:16:28.695Z,97644.72
2023-05-25T17:18:57.780Z,97646.41
2023-05-25T17:21:26.885Z,97658.84
2023-05-25T17:23:56.778Z,97649.25
2023-05-25T17:26:26.973Z,97656.44
2023-05-25T17:28:58.756Z,97652.16
2023-05-25T17:31:31.294Z,97640.41
2023-05-25T17:34:00.520Z,97626.78
2023-05-25T17:36:29.572Z,97615.09
2023-05-25T17:38:58.879Z,97610.31
2023-05-25T17:41:27.889Z,97601.81
2023-05-25T17:43:56.977Z,97607.31
2023-05-25T17:46:27.252Z,97624.53
2023-05-25T17:48:56.900Z,97631.69
2023-05-25T17:51:26.904Z,97618.91
2023-05-25T17:53:57.416Z,97619.63
2023-05-25T17:56:27.346Z,97627.50
2023-05-25T17:58:56.819Z,97626.31
2023-05-25T18:01:27.393Z,97628.56
2023-05-25T18:04:02.841Z,97629.66
2023-05-25T18:06:32.236Z,97622.59
2023-05-25T18:09:01.201Z,97619.03
2023-05-25T18:11:37.738Z,97603.84
2023-05-25T18:14:06.854Z,97601.22
2023-05-25T18:16:40.590Z,97604.22
2023-05-25T18:19:10.437Z,97602.91
2023-05-25T18:21:41.117Z,97599.88
2023-05-25T18:24:10.218Z,97609.00
2023-05-25T18:26:39.089Z,97604.78
2023-05-25T18:29:08.290Z,97612.22
2023-05-25T18:31:37.178Z,97620.31
2023-05-25T18:34:08.251Z,97624.03
2023-05-25T18:36:37.327Z,97622.69
2023-05-25T18:39:06.569Z,97624.00
2023-05-25T18:41:35.825Z,97646.81
2023-05-25T18:44:04.788Z,97644.19
2023-05-25T18:46:34.061Z,97646.56
2023-05-25T18:49:03.289Z,97655.19
2023-05-25T18:51:32.481Z,97654.47
2023-05-25T18:54:01.772Z,97649.94
2023-05-25T19:09:07.884Z,97667.44
2023-05-25T19:11:40.055Z,97668.41
2023-05-25T19:14:09.221Z,97664.53
2023-05-25T19:16:38.546Z,97670.84
2023-05-25T19:19:08.132Z,97674.31
2023-05-25T19:21:37.875Z,97670.00
2023-05-25T19:24:07.085Z,97660.31
2023-05-25T19:26:38.916Z,97662.56
2023-05-25T19:29:07.968Z,97665.53
2023-05-25T19:31:37.488Z,97671.94
2023-05-25T19:34:07.275Z,97673.34
2023-05-25T19:36:36.361Z,97667.91
2023-05-25T19:39:05.909Z,97666.75
2023-05-25T19:41:35.102Z,97679.03
2023-05-25T19:44:04.327Z,97681.34
2023-05-25T19:46:33.724Z,97679.03
2023-05-25T19:49:03.012Z,97668.75
2023-05-25T19:51:34.155Z,97672.31
2023-05-25T19:54:03.326Z,97675.94
2023-05-25T19:56:33.068Z,97667.31
2023-05-25T19:59:02.169Z,97662.91
2023-05-25T20:01:34.011Z,97653.00
2023-05-25T20:04:04.023Z,97658.50
2023-05-25T20:06:35.040Z,97656.94
2023-05-25T20:09:05.330Z,97664.69
2023-05-25T20:11:35.500Z,97670.91
2023-05-25T20:14:04.765Z,97674.34
2023-05-25T20:16:34.645Z,97681.81
2023-05-25T20:19:08.834Z,97683.59
2023-05-25T20:21:38.846Z,97688.00
2023-05-25T20:24:11.329Z,97681.19
2023-05-25T20:26:44.726Z,97676.25
2023-05-25T20:29:17.128Z,97679.19
2023-05-25T20:31:51.477Z,97678.44
2023-05-25T20:34:24.516Z,97676.75
2023-05-25T20:36:57.897Z,97682.44
2023-05-25T20:39:32.275Z,97684.53
2023-05-25T20:42:04.650Z,97707.88
2023-05-25T20:44:39.716Z,97712.69
2023-05-25T20:47:13.125Z,97713.84
2023-05-25T20:49:46.497Z,97718.59
2023-05-25T20:52:18.827Z,97720.41
2023-05-25T20:54:51.896Z,97728.22
2023-05-25T20:57:24.324Z,97728.06
2023-05-25T20:59:59.628Z,97731.00
2023-05-25T21:02:32.827Z,97739.53
2023-05-25T21:05:06.252Z,97751.41
2023-05-25T21:07:38.565Z,97757.22
2023-05-25T21:10:12.967Z,97751.34
2023-05-25T21:12:45.166Z,97732.19
2023-05-25T21:15:19.336Z,97700.81
2023-05-25T21:17:51.768Z,97689.69
2023-05-25T21:20:25.200Z,97683.81
2023-05-25T21:22:59.402Z,97682.16
2023-05-25T21:25:35.558Z,97675.44
2023-05-25T21:28:08.968Z,97677.94
2023-05-25T21:30:42.281Z,97666.00
2023-05-25T21:33:15.331Z,97662.53
2023-05-25T21:35:48.726Z,97677.31
2023-05-25T21:38:21.126Z,97669.44
2023-05-25T21:40:53.425Z,97668.94
2023-05-25T21:43:26.598Z,97649.44
2023-05-25T21:46:00.002Z,97654.34
2023-05-25T21:48:32.259Z,97666.75
2023-05-25T21:51:05.604Z,97684.75
2023-05-25T21:53:37.860Z,97682.13
2023-05-25T21:56:11.347Z,97676.28
2023-05-25T21:58:44.651Z,97674.91
2023-05-25T22:01:16.983Z,97677.31
2023-05-25T22:03:50.200Z,97677.50
2023-05-25T22:06:22.547Z,97659.38
2023-05-25T22:08:55.741Z,97663.91
2023-05-25T22:11:29.169Z,97665.81
2023-05-25T22:14:01.571Z,97670.00
2023-05-25T22:16:34.877Z,97671.13
2023-05-25T22:19:07.836Z,97674.38
2023-05-25T22:21:41.238Z,97660.03
2023-05-25T22:24:13.633Z,97656.78
2023-05-25T22:26:46.985Z,97660.03
2023-05-25T22:29:19.405Z,97663.28
2023-05-25T22:31:53.675Z,97661.28
2023-05-25T22:34:26.852Z,97658.22
2023-05-25T22:36:59.173Z,97644.28
2023-05-25T22:39:35.494Z,97638.22
2023-05-25T22:42:11.800Z,97623.44
2023-05-25T22:44:44.171Z,97632.47
2023-05-25T22:47:18.270Z,97648.63
2023-05-25T22:49:51.654Z,97653.09
2023-05-25T22:52:26.970Z,97656.56
2023-05-25T22:54:59.238Z,97665.50
2023-05-25T22:57:34.263Z,97654.69
2023-05-25T23:00:08.077Z,97648.38
2023-05-25T23:02:41.198Z,97648.78
2023-05-25T23:05:15.472Z,97662.50
2023-05-25T23:07:49.440Z,97671.44
2023-05-25T23:10:22.828Z,97671.63
2023-05-25T23:12:57.212Z,97673.28
2023-05-25T23:15:30.510Z,97687.78
2023-05-25T23:18:03.605Z,97703.38
2023-05-25T23:20:39.007Z,97703.78
2023-05-25T23:23:12.285Z,97706.28
2023-05-25T23:25:44.702Z,97709.91
2023-05-25T23:28:16.910Z,97723.81
2023-05-25T23:30:50.323Z,97722.38
2023-05-25T23:33:23.615Z,97705.53
2023-05-25T23:35:56.823Z,97713.19
2023-05-25T23:38:29.241Z,97723.97
2023-05-25T23:41:01.653Z,97733.81
2023-05-25T23:43:34.010Z,97738.63
2023-05-25T23:46:07.171Z,97748.03
2023-05-25T23:48:39.604Z,97755.59
2023-05-25T23:51:12.996Z,97749.31
2023-05-25T23:53:47.133Z,97757.50
2023-05-25T23:56:21.183Z,97769.88
2023-05-25T23:58:53.615Z,97774.06
